Time;durP1;ratioP1;P1;durP2;ratioP2;P2;SDS_P1;SDS_P2;PMS_P1;PMS_P2;Temp;Humidity;BMP_temperature;BMP_pressure;BME280_temperature;BME280_humidity;BME280_pressure;Samples;Min_cycle;Max_cycle;Signal;HPM_P1;HPM_P2
2023/04/14 00:01:36;;;;;;;23.77;13.70;;;;;;;;;;5034347;28;20032;-62
2023/04/14 00:04:02;;;;;;;24.45;14.90;;;;;;;;;;5032104;28;20037;-63
2023/04/14 00:06:28;;;;;;;25.55;14.30;;;;;;;;;;5034329;28;20037;-62
2023/04/14 00:08:54;;;;;;;21.92;13.00;;;;;;;;;;5034258;28;20107;-63
2023/04/14 00:11:21;;;;;;;24.70;13.68;;;;;;;;;;5034202;28;20021;-63
2023/04/14 00:13:47;;;;;;;24.42;13.35;;;;;;;;;;5015674;28;20025;-62
2023/04/14 00:16:13;;;;;;;23.38;14.18;;;;;;;;;;5033569;28;20028;-65
2023/04/14 00:18:39;;;;;;;25.85;13.77;;;;;;;;;;5016182;28;20033;-62
2023/04/14 00:21:06;;;;;;;27.70;14.10;;;;;;;;;;5034129;28;20037;-63
2023/04/14 00:23:32;;;;;;;24.27;13.73;;;;;;;;;;5033073;28;20096;-63
2023/04/14 00:25:58;;;;;;;23.38;14.13;;;;;;;;;;5033770;28;20029;-62
2023/04/14 00:28:24;;;;;;;21.17;13.60;;;;;;;;;;5015755;28;20029;-61
2023/04/14 00:30:50;;;;;;;30.08;14.75;;;;;;;;;;5033832;28;20375;-62
2023/04/14 00:33:16;;;;;;;24.15;13.82;;;;;;;;;;5032790;28;20029;-57
2023/04/14 00:35:42;;;;;;;21.15;13.18;;;;;;;;;;5015976;28;20025;-62
2023/04/14 00:38:08;;;;;;;23.48;13.23;;;;;;;;;;5033308;28;20044;-65
2023/04/14 00:40:34;;;;;;;24.08;14.15;;;;;;;;;;5033356;28;20025;-63
2023/04/14 00:43:00;;;;;;;25.27;14.38;;;;;;;;;;5033096;28;20549;-61
2023/04/14 00:45:26;;;;;;;27.40;13.07;;;;;;;;;;5032750;28;20029;-63
2023/04/14 00:47:52;;;;;;;23.23;11.95;;;;;;;;;;5033448;28;20058;-62
2023/04/14 00:50:18;;;;;;;22.55;13.52;;;;;;;;;;5015997;28;20113;-62
2023/04/14 00:52:46;;;;;;;26.40;13.50;;;;;;;;;;5033819;28;20509;-62
2023/04/14 00:55:13;;;;;;;23.23;13.13;;;;;;;;;;5032891;28;20040;-62
2023/04/14 00:57:39;;;;;;;24.15;13.88;;;;;;;;;;5033198;28;20044;-62
2023/04/14 01:00:06;;;;;;;23.77;13.07;;;;;;;;;;5033447;28;20034;-62
2023/04/14 01:02:32;;;;;;;20.55;12.65;;;;;;;;;;5015501;28;20026;-61
2023/04/14 01:04:59;;;;;;;24.02;13.95;;;;;;;;;;5032136;28;20507;-61
2023/04/14 01:07:26;;;;;;;24.75;14.60;;;;;;;;;;5015519;28;20398;-63
2023/04/14 01:09:53;;;;;;;23.30;13.98;;;;;;;;;;5015263;28;20033;-63
2023/04/14 01:12:31;;;;;;;32.22;15.60;;;;;;;;;;5015234;28;20025;-63
2023/04/14 01:15:00;;;;;;;26.25;13.88;;;;;;;;;;5032058;28;20033;-62
2023/04/14 01:17:35;;;;;;;23.73;13.55;;;;;;;;;;5032831;28;20096;-62
2023/04/14 01:20:21;;;;;;;25.25;13.75;;;;;;;;;;5032773;28;20021;-64
2023/04/14 01:22:48;;;;;;;23.23;14.07;;;;;;;;;;5032787;28;20030;-62
2023/04/14 01:25:28;;;;;;;25.17;12.93;;;;;;;;;;5014243;28;20103;-63
2023/04/14 01:28:13;;;;;;;23.75;13.68;;;;;;;;;;5014281;28;20025;-61
2023/04/14 01:30:57;;;;;;;23.83;13.30;;;;;;;;;;5015095;28;20033;-64
2023/04/14 01:33:24;;;;;;;20.40;13.50;;;;;;;;;;5031744;28;20030;-63
2023/04/14 01:35:55;;;;;;;23.80;13.48;;;;;;;;;;5032582;28;20030;-63
2023/04/14 01:38:29;;;;;;;24.48;13.35;;;;;;;;;;5014937;28;20024;-63
2023/04/14 01:41:02;;;;;;;24.30;12.90;;;;;;;;;;5032479;28;20068;-63
2023/04/14 01:43:30;;;;;;;21.23;12.30;;;;;;;;;;5031594;28;20430;-63
2023/04/14 01:45:58;;;;;;;19.75;12.80;;;;;;;;;;5014739;28;20021;-64
2023/04/14 01:48:25;;;;;;;23.92;12.57;;;;;;;;;;5014886;28;20033;-63
2023/04/14 01:50:51;;;;;;;22.02;12.65;;;;;;;;;;5032642;28;20059;-62
2023/04/14 01:53:19;;;;;;;25.10;13.35;;;;;;;;;;5032851;28;20086;-62
2023/04/14 01:55:48;;;;;;;23.23;13.37;;;;;;;;;;5014731;28;20034;-61
2023/04/14 01:58:15;;;;;;;21.33;12.68;;;;;;;;;;5032004;28;20029;-61
2023/04/14 02:00:42;;;;;;;24.40;13.75;;;;;;;;;;5032058;28;20026;-63
2023/04/14 02:03:08;;;;;;;24.45;12.90;;;;;;;;;;5031465;28;20096;-62
2023/04/14 02:05:36;;;;;;;23.05;13.02;;;;;;;;;;5032068;28;20026;-63
2023/04/14 02:08:03;;;;;;;20.95;13.10;;;;;;;;;;5014106;28;20112;-63
2023/04/14 02:10:29;;;;;;;23.48;12.18;;;;;;;;;;5032027;28;20036;-64
2023/04/14 02:12:57;;;;;;;24.52;13.82;;;;;;;;;;5031861;28;20456;-62
2023/04/14 02:15:25;;;;;;;20.70;11.87;;;;;;;;;;5031469;28;20029;-63
2023/04/14 02:17:51;;;;;;;23.20;11.90;;;;;;;;;;5014150;28;20025;-64
2023/04/14 02:20:20;;;;;;;20.38;11.55;;;;;;;;;;5014386;28;20036;-63
2023/04/14 02:22:46;;;;;;;20.95;11.75;;;;;;;;;;5031867;28;20025;-64
2023/04/14 02:25:12;;;;;;;21.45;11.13;;;;;;;;;;5031113;28;20025;-63
2023/04/14 02:27:40;;;;;;;20.17;11.45;;;;;;;;;;5014008;28;20057;-63
2023/04/14 02:30:19;;;;;;;19.35;11.57;;;;;;;;;;5014184;28;20029;-64
2023/04/14 02:32:46;;;;;;;22.10;11.82;;;;;;;;;;5014192;28;20571;-61
2023/04/14 02:35:15;;;;;;;20.92;11.65;;;;;;;;;;5031059;28;20053;-64
2023/04/14 02:37:43;;;;;;;25.38;12.50;;;;;;;;;;5031619;28;20032;-64
2023/04/14 02:40:15;;;;;;;20.77;11.60;;;;;;;;;;5016622;28;20060;-64
2023/04/14 02:42:44;;;;;;;24.15;11.90;;;;;;;;;;5035619;28;20021;-63
2023/04/14 02:45:12;;;;;;;22.15;13.23;;;;;;;;;;5034998;28;20029;-63
2023/04/14 02:47:41;;;;;;;21.75;11.63;;;;;;;;;;5035412;28;20021;-63
2023/04/14 02:50:09;;;;;;;19.60;12.20;;;;;;;;;;5017964;28;20040;-63
2023/04/14 02:52:36;;;;;;;21.10;11.77;;;;;;;;;;5035489;28;20040;-63
2023/04/14 02:55:03;;;;;;;22.20;11.82;;;;;;;;;;5016811;28;20489;-63
2023/04/14 02:57:29;;;;;;;19.40;11.48;;;;;;;;;;5035041;28;20064;-63
2023/04/14 02:59:56;;;;;;;21.33;11.55;;;;;;;;;;5017511;28;20075;-63
2023/04/14 03:02:22;;;;;;;23.42;11.65;;;;;;;;;;5017574;28;20028;-64
2023/04/14 03:04:48;;;;;;;21.10;11.60;;;;;;;;;;5016990;28;20116;-63
2023/04/14 03:07:15;;;;;;;20.75;11.30;;;;;;;;;;5035343;28;20049;-60
2023/04/14 03:09:42;;;;;;;21.23;11.35;;;;;;;;;;5017758;28;20620;-63
2023/04/14 03:12:11;;;;;;;22.77;11.20;;;;;;;;;;5035631;28;20030;-63
2023/04/14 03:14:38;;;;;;;22.35;11.15;;;;;;;;;;5016760;28;20025;-63
2023/04/14 03:17:04;;;;;;;18.10;10.68;;;;;;;;;;5035000;28;20474;-63
2023/04/14 03:19:31;;;;;;;20.98;11.35;;;;;;;;;;5017185;28;20115;-63
2023/04/14 03:21:58;;;;;;;21.95;11.60;;;;;;;;;;5017163;28;20037;-64
2023/04/14 03:24:29;;;;;;;21.00;12.75;;;;;;;;;;5016446;28;20030;-65
2023/04/14 03:26:58;;;;;;;20.02;11.70;;;;;;;;;;5034835;28;20033;-65
2023/04/14 03:29:29;;;;;;;20.55;11.05;;;;;;;;;;5034863;28;20037;-65
2023/04/14 03:31:58;;;;;;;22.13;11.85;;;;;;;;;;5034602;28;20030;-63
2023/04/14 03:34:27;;;;;;;22.25;12.48;;;;;;;;;;5033951;28;20018;-65
2023/04/14 03:36:55;;;;;;;20.55;11.60;;;;;;;;;;5034384;28;20024;-65
2023/04/14 03:39:23;;;;;;;24.42;12.80;;;;;;;;;;5034461;28;20725;-64
2023/04/14 03:41:50;;;;;;;;;;;;;;;;;;5035106;28;20037;-64
2023/04/14 03:44:18;;;;;;;25.60;13.98;;;;;;;;;;5033779;28;19984;-65
2023/04/14 03:46:44;;;;;;;28.92;13.52;;;;;;;;;;5016704;28;20040;-65
2023/04/14 03:49:15;;;;;;;23.98;13.77;;;;;;;;;;5016608;28;20036;-64
2023/04/14 03:51:42;;;;;;;30.25;13.55;;;;;;;;;;5034234;28;20067;-65
2023/04/14 03:54:09;;;;;;;20.70;13.00;;;;;;;;;;5015765;28;20029;-64
2023/04/14 03:56:37;;;;;;;26.48;12.75;;;;;;;;;;5016464;28;20409;-64
2023/04/14 03:59:04;;;;;;;23.77;13.00;;;;;;;;;;5042782;28;20043;-65
2023/04/14 04:01:32;;;;;;;27.05;14.32;;;;;;;;;;5023162;28;20049;-65
2023/04/14 04:04:00;;;;;;;24.13;13.38;;;;;;;;;;5015874;28;20024;-63
2023/04/14 04:06:27;;;;;;;25.27;12.93;;;;;;;;;;5016247;28;20032;-64
2023/04/14 04:08:53;;;;;;;22.52;12.60;;;;;;;;;;5033723;28;20032;-64
2023/04/14 04:11:20;;;;;;;23.75;13.82;;;;;;;;;;5015869;28;20025;-63
2023/04/14 04:13:49;;;;;;;21.40;12.85;;;;;;;;;;5034416;28;20025;-64
2023/04/14 04:16:15;;;;;;;22.05;13.00;;;;;;;;;;5035259;28;20048;-64
2023/04/14 04:18:45;;;;;;;24.08;13.80;;;;;;;;;;5034038;28;20087;-64
2023/04/14 04:21:14;;;;;;;27.25;13.90;;;;;;;;;;5016238;28;20180;-62
2023/04/14 04:23:41;;;;;;;27.98;13.73;;;;;;;;;;5033132;28;20079;-65
2023/04/14 04:26:07;;;;;;;22.85;12.85;;;;;;;;;;5015929;28;20029;-65
2023/04/14 04:28:33;;;;;;;25.83;13.18;;;;;;;;;;5033969;28;20022;-65
2023/04/14 04:31:00;;;;;;;23.15;13.57;;;;;;;;;;5033966;28;20056;-64
2023/04/14 04:33:28;;;;;;;22.85;13.00;;;;;;;;;;5033990;28;20505;-64
2023/04/14 04:35:55;;;;;;;22.08;13.35;;;;;;;;;;5016065;28;20028;-62
2023/04/14 04:38:21;;;;;;;20.27;12.50;;;;;;;;;;5033669;28;20386;-62
2023/04/14 04:40:47;;;;;;;23.30;14.70;;;;;;;;;;5033782;28;20022;-63
2023/04/14 04:43:13;;;;;;;21.35;13.13;;;;;;;;;;5015129;28;20107;-63
2023/04/14 04:45:39;;;;;;;26.38;13.48;;;;;;;;;;5033363;28;20501;-63
2023/04/14 04:48:05;;;;;;;20.15;12.50;;;;;;;;;;5015737;28;20025;-63
2023/04/14 04:50:31;;;;;;;24.02;13.20;;;;;;;;;;5034633;28;20025;-63
2023/04/14 04:52:57;;;;;;;34.10;13.60;;;;;;;;;;5033320;28;20521;-62
2023/04/14 04:55:23;;;;;;;23.02;12.65;;;;;;;;;;5032794;28;20060;-63
2023/04/14 04:57:49;;;;;;;21.83;11.93;;;;;;;;;;5033068;28;20494;-62
2023/04/14 05:00:15;;;;;;;18.90;11.57;;;;;;;;;;5033157;28;20040;-64
2023/04/14 05:02:41;;;;;;;23.42;12.63;;;;;;;;;;5032994;28;20025;-63
2023/04/14 05:05:08;;;;;;;22.30;11.85;;;;;;;;;;5032132;28;20025;-63
2023/04/14 05:07:34;;;;;;;23.33;12.13;;;;;;;;;;5033711;28;20026;-62
2023/04/14 05:10:00;;;;;;;18.88;11.55;;;;;;;;;;5015507;28;20087;-63
2023/04/14 05:12:26;;;;;;;23.48;12.77;;;;;;;;;;5014897;28;20032;-62
2023/04/14 05:14:52;;;;;;;21.60;11.60;;;;;;;;;;5032196;28;20030;-62
2023/04/14 05:17:18;;;;;;;27.35;12.57;;;;;;;;;;5032448;28;20496;-62
2023/04/14 05:19:45;;;;;;;21.90;12.70;;;;;;;;;;5032815;28;20020;-63
2023/04/14 05:22:11;;;;;;;22.33;12.10;;;;;;;;;;5032778;28;20032;-63
2023/04/14 05:24:38;;;;;;;21.17;11.95;;;;;;;;;;5031888;28;20436;-63
2023/04/14 05:27:04;;;;;;;23.23;11.88;;;;;;;;;;5020519;28;20378;-63
2023/04/14 05:29:30;;;;;;;29.38;12.45;;;;;;;;;;5018710;28;20033;-64
2023/04/14 05:31:56;;;;;;;20.65;12.18;;;;;;;;;;5020924;28;20029;-64
2023/04/14 05:34:22;;;;;;;20.77;11.40;;;;;;;;;;5018578;28;20068;-63
2023/04/14 05:36:49;;;;;;;21.30;11.82;;;;;;;;;;5020516;28;20025;-64
2023/04/14 05:39:15;;;;;;;21.02;11.40;;;;;;;;;;5037645;28;20049;-65
2023/04/14 05:41:41;;;;;;;23.65;11.75;;;;;;;;;;5037844;28;20021;-63
2023/04/14 05:44:07;;;;;;;23.58;12.43;;;;;;;;;;5015282;28;20013;-63
2023/04/14 05:46:34;;;;;;;21.98;12.02;;;;;;;;;;5020077;28;20041;-64
2023/04/14 05:49:00;;;;;;;25.15;10.93;;;;;;;;;;5020193;28;20104;-62
2023/04/14 05:51:26;;;;;;;21.05;10.80;;;;;;;;;;5037380;28;20049;-63
2023/04/14 05:53:53;;;;;;;21.45;11.52;;;;;;;;;;5032588;28;20025;-65
2023/04/14 05:56:19;;;;;;;20.77;10.93;;;;;;;;;;5032208;28;20101;-63
2023/04/14 05:58:45;;;;;;;20.77;11.77;;;;;;;;;;5033257;28;20139;-64
2023/04/14 06:01:11;;;;;;;20.88;11.30;;;;;;;;;;5032312;28;20108;-64
2023/04/14 06:03:37;;;;;;;19.15;11.45;;;;;;;;;;5014053;28;20025;-64
2023/04/14 06:06:03;;;;;;;21.92;11.32;;;;;;;;;;5032463;28;20060;-64
2023/04/14 06:08:30;;;;;;;23.55;10.98;;;;;;;;;;5033707;28;20030;-64
2023/04/14 06:10:56;;;;;;;24.13;12.30;;;;;;;;;;5013002;28;20034;-62
2023/04/14 06:13:22;;;;;;;22.63;11.18;;;;;;;;;;5012899;28;20030;-63
2023/04/14 06:15:49;;;;;;;21.30;10.80;;;;;;;;;;5031822;28;20034;-64
2023/04/14 06:18:15;;;;;;;25.00;12.27;;;;;;;;;;5032433;28;20025;-62
2023/04/14 06:20:42;;;;;;;21.92;10.45;;;;;;;;;;5014446;28;20113;-63
2023/04/14 06:23:08;;;;;;;21.63;10.68;;;;;;;;;;5013739;28;20064;-64
2023/04/14 06:25:34;;;;;;;20.60;11.00;;;;;;;;;;5032754;28;20076;-63
2023/04/14 06:28:02;;;;;;;24.45;11.32;;;;;;;;;;5032177;28;20029;-61
2023/04/14 06:30:30;;;;;;;24.65;10.88;;;;;;;;;;5032786;28;20080;-64
2023/04/14 06:32:56;;;;;;;;;;;;;;;;;;5014761;28;20033;-63
2023/04/14 06:35:22;;;;;;;26.67;12.20;;;;;;;;;;5013822;28;20258;-62
2023/04/14 06:37:48;;;;;;;37.92;14.52;;;;;;;;;;5031922;28;20025;-62
2023/04/14 06:40:15;;;;;;;25.05;12.57;;;;;;;;;;5031916;28;20021;-63
2023/04/14 06:42:41;;;;;;;25.88;13.73;;;;;;;;;;5014031;28;20478;-63
2023/04/14 06:45:07;;;;;;;31.20;14.98;;;;;;;;;;5013180;28;20037;-63
2023/04/14 06:47:33;;;;;;;26.08;12.85;;;;;;;;;;5031717;28;20021;-63
2023/04/14 06:50:01;;;;;;;23.05;13.25;;;;;;;;;;5033800;28;20040;-64
2023/04/14 06:52:27;;;;;;;25.80;12.40;;;;;;;;;;5014675;28;20112;-64
2023/04/14 06:54:53;;;;;;;22.70;12.80;;;;;;;;;;5030550;28;20160;-54
2023/04/14 06:57:19;;;;;;;24.00;12.95;;;;;;;;;;5030952;28;20036;-55
2023/04/14 06:59:45;;;;;;;24.42;13.40;;;;;;;;;;5031277;28;20021;-57
2023/04/14 07:02:11;;;;;;;23.27;12.73;;;;;;;;;;5013418;28;20041;-56
2023/04/14 07:04:37;;;;;;;24.98;12.30;;;;;;;;;;5030415;28;20473;-57
2023/04/14 07:07:03;;;;;;;27.83;12.90;;;;;;;;;;5030709;28;20047;-57
2023/04/14 07:09:29;;;;;;;27.92;13.18;;;;;;;;;;5030677;28;20037;-61
2023/04/14 07:11:56;;;;;;;21.42;12.57;;;;;;;;;;5030780;28;20030;-56
2023/04/14 07:14:22;;;;;;;20.73;11.90;;;;;;;;;;5030036;28;20030;-54
2023/04/14 07:16:49;;;;;;;25.70;12.85;;;;;;;;;;5031004;28;20032;-54
2023/04/14 07:19:15;;;;;;;24.58;11.77;;;;;;;;;;5013293;28;20087;-51
2023/04/14 07:21:41;;;;;;;21.92;12.15;;;;;;;;;;5013216;28;20045;-53
2023/04/14 07:24:08;;;;;;;22.38;11.82;;;;;;;;;;5030456;28;20037;-56
2023/04/14 07:26:34;;;;;;;27.48;12.15;;;;;;;;;;5032375;28;20022;-58
2023/04/14 07:29:00;;;;;;;21.42;11.70;;;;;;;;;;5035283;28;20013;-68
2023/04/14 07:31:26;;;;;;;19.00;10.68;;;;;;;;;;5017658;28;20036;-68
2023/04/14 07:33:52;;;;;;;24.40;12.20;;;;;;;;;;5016769;28;20466;-68
2023/04/14 07:36:18;;;;;;;22.92;11.63;;;;;;;;;;5034963;28;20087;-67
2023/04/14 07:38:44;;;;;;;25.92;13.30;;;;;;;;;;5016932;28;20026;-68
2023/04/14 07:41:10;;;;;;;19.05;10.80;;;;;;;;;;5017218;28;20026;-68
2023/04/14 07:43:38;;;;;;;23.00;13.00;;;;;;;;;;5034380;28;20394;-68
2023/04/14 07:46:05;;;;;;;20.58;10.88;;;;;;;;;;5035404;28;20079;-67
2023/04/14 07:48:31;;;;;;;28.83;11.52;;;;;;;;;;5032253;28;20104;-67
2023/04/14 07:50:57;;;;;;;22.60;11.07;;;;;;;;;;5034700;28;20076;-67
2023/04/14 07:53:23;;;;;;;21.77;11.60;;;;;;;;;;5026291;28;20385;-63
2023/04/14 07:55:49;;;;;;;19.33;10.45;;;;;;;;;;5033185;28;20045;-66
2023/04/14 07:58:15;;;;;;;23.80;11.52;;;;;;;;;;5018634;28;20463;-63
2023/04/14 08:00:42;;;;;;;19.02;11.07;;;;;;;;;;5019172;28;20132;-65
2023/04/14 08:03:08;;;;;;;19.77;11.38;;;;;;;;;;5033952;28;20420;-64
2023/04/14 08:05:35;;;;;;;21.65;10.73;;;;;;;;;;5016751;28;20029;-65
2023/04/14 08:08:03;;;;;;;20.23;10.60;;;;;;;;;;5034444;28;20482;-64
2023/04/14 08:10:29;;;;;;;26.48;10.15;;;;;;;;;;5034853;28;20115;-64
2023/04/14 08:12:55;;;;;;;25.58;11.35;;;;;;;;;;5016152;28;20248;-64
2023/04/14 08:15:21;;;;;;;18.70;10.05;;;;;;;;;;5015408;28;20581;-63
2023/04/14 08:17:47;;;;;;;21.73;10.40;;;;;;;;;;5033610;28;20136;-63
2023/04/14 08:20:13;;;;;;;20.67;10.60;;;;;;;;;;5033796;28;20036;-62
2023/04/14 08:22:39;;;;;;;18.33;10.48;;;;;;;;;;5033467;28;20024;-62
2023/04/14 08:25:05;;;;;;;23.73;10.60;;;;;;;;;;5032865;28;20159;-64
2023/04/14 08:27:31;;;;;;;18.48;10.88;;;;;;;;;;5033915;28;20029;-64
2023/04/14 08:29:57;;;;;;;22.60;11.45;;;;;;;;;;5033872;28;20029;-62
2023/04/14 08:32:24;;;;;;;19.00;10.80;;;;;;;;;;5034985;28;20028;-62
2023/04/14 08:34:50;;;;;;;21.17;10.95;;;;;;;;;;5033969;28;20017;-64
2023/04/14 08:37:17;;;;;;;21.98;11.40;;;;;;;;;;5033406;28;20021;-65
2023/04/14 08:39:43;;;;;;;25.02;11.88;;;;;;;;;;5016129;28;20104;-65
2023/04/14 08:42:09;;;;;;;21.40;11.35;;;;;;;;;;5015650;28;20149;-65
2023/04/14 08:44:36;;;;;;;18.95;11.15;;;;;;;;;;5015341;28;20030;-65
2023/04/14 08:47:03;;;;;;;22.08;11.15;;;;;;;;;;5033837;28;20045;-65
2023/04/14 08:49:49;;;;;;;20.38;11.60;;;;;;;;;;5033426;28;20524;-65
2023/04/14 08:52:17;;;;;;;20.17;10.75;;;;;;;;;;5020405;28;20080;-65
2023/04/14 08:54:43;;;;;;;20.83;11.18;;;;;;;;;;5033227;28;20026;-65
2023/04/14 08:57:09;;;;;;;21.17;11.52;;;;;;;;;;4682910;28;9999891;-62
2023/04/14 08:59:35;;;;;;;21.00;11.23;;;;;;;;;;5030829;28;20021;-65
2023/04/14 09:02:05;;;;;;;24.80;13.40;;;;;;;;;;5031042;28;20022;-65
2023/04/14 09:04:31;;;;;;;21.77;11.07;;;;;;;;;;5012698;28;20057;-64
2023/04/14 09:06:57;;;;;;;19.63;10.48;;;;;;;;;;5013312;28;20038;-62
2023/04/14 09:09:24;;;;;;;19.40;11.00;;;;;;;;;;5030258;28;20090;-65
2023/04/14 09:11:51;;;;;;;19.80;10.63;;;;;;;;;;5012802;28;20029;-62
2023/04/14 09:14:17;;;;;;;21.00;12.90;;;;;;;;;;5011842;28;20513;-65
2023/04/14 09:16:47;;;;;;;23.02;10.85;;;;;;;;;;5030551;28;20440;-66
2023/04/14 09:19:13;;;;;;;22.13;11.65;;;;;;;;;;5030574;28;20022;-66
2023/04/14 09:21:40;;;;;;;25.88;12.23;;;;;;;;;;5029791;28;20047;-65
2023/04/14 09:24:07;;;;;;;20.80;12.35;;;;;;;;;;5030139;28;20030;-63
2023/04/14 09:26:33;;;;;;;21.25;12.48;;;;;;;;;;5030617;28;20076;-66
2023/04/14 09:28:59;;;;;;;20.52;12.15;;;;;;;;;;5029912;28;20036;-65
2023/04/14 09:31:25;;;;;;;20.27;11.90;;;;;;;;;;5030078;28;20053;-66
2023/04/14 09:33:52;;;;;;;22.05;12.95;;;;;;;;;;5029262;28;20041;-66
2023/04/14 09:36:19;;;;;;;24.23;13.07;;;;;;;;;;5012000;28;20036;-62
2023/04/14 09:38:45;;;;;;;20.63;11.77;;;;;;;;;;5012134;28;20025;-63
2023/04/14 09:41:16;;;;;;;23.50;13.32;;;;;;;;;;5011681;28;20049;-62
2023/04/14 09:43:42;;;;;;;23.98;12.25;;;;;;;;;;5012427;28;20024;-65
2023/04/14 09:46:08;;;;;;;20.50;11.77;;;;;;;;;;5031936;28;20742;-65
2023/04/14 09:48:38;;;;;;;23.92;13.55;;;;;;;;;;5031335;28;20029;-65
2023/04/14 09:51:05;;;;;;;22.27;11.98;;;;;;;;;;5014311;28;20025;-63
2023/04/14 09:53:35;;;;;;;18.52;10.95;;;;;;;;;;5014164;28;20029;-65
2023/04/14 09:56:03;;;;;;;19.02;11.40;;;;;;;;;;5014699;28;20063;-65
2023/04/14 09:58:40;;;;;;;20.38;12.43;;;;;;;;;;5014245;28;20025;-64
2023/04/14 10:01:16;;;;;;;23.05;11.70;;;;;;;;;;5024789;28;20029;-65
2023/04/14 10:03:49;;;;;;;21.42;11.45;;;;;;;;;;5013788;28;20505;-65
2023/04/14 10:06:19;;;;;;;21.60;11.73;;;;;;;;;;5032083;28;20025;-66
2023/04/14 10:08:49;;;;;;;17.88;11.25;;;;;;;;;;5014315;28;20108;-65
2023/04/14 10:11:18;;;;;;;21.42;11.73;;;;;;;;;;5032101;28;20025;-65
2023/04/14 10:13:48;;;;;;;17.70;11.20;;;;;;;;;;5031339;28;20442;-65
2023/04/14 10:16:14;;;;;;;21.25;12.10;;;;;;;;;;5031476;28;20099;-65
2023/04/14 10:18:40;;;;;;;17.85;11.00;;;;;;;;;;5031610;28;20470;-62
2023/04/14 10:21:07;;;;;;;22.48;10.27;;;;;;;;;;5031257;28;20045;-64
2023/04/14 10:23:35;;;;;;;22.77;11.50;;;;;;;;;;5013304;28;20037;-65
2023/04/14 10:26:02;;;;;;;21.67;11.18;;;;;;;;;;5014313;28;20093;-65
2023/04/14 10:28:28;;;;;;;20.77;11.32;;;;;;;;;;5032112;28;20036;-65
2023/04/14 10:30:55;;;;;;;20.42;11.20;;;;;;;;;;5031597;28;20048;-65
2023/04/14 10:33:22;;;;;;;21.98;12.20;;;;;;;;;;5031077;28;20442;-65
2023/04/14 10:35:48;;;;;;;20.92;12.35;;;;;;;;;;5031355;28;20397;-67
2023/04/14 10:38:15;;;;;;;19.75;11.73;;;;;;;;;;5031594;28;20021;-65
2023/04/14 10:40:45;;;;;;;18.75;12.02;;;;;;;;;;5013719;28;20060;-64
2023/04/14 10:43:14;;;;;;;18.25;11.43;;;;;;;;;;5031287;28;20040;-64
2023/04/14 10:45:59;;;;;;;19.33;11.52;;;;;;;;;;5014339;28;20022;-65
2023/04/14 10:48:27;;;;;;;22.60;11.50;;;;;;;;;;5015077;28;20036;-65
2023/04/14 10:50:58;;;;;;;20.50;11.93;;;;;;;;;;5032709;28;20068;-65
2023/04/14 10:53:33;;;;;;;18.98;11.30;;;;;;;;;;5030654;28;20040;-65
2023/04/14 10:56:01;;;;;;;20.65;11.73;;;;;;;;;;5032387;28;20026;-65
2023/04/14 10:58:28;;;;;;;;;;;;;;;;;;5016034;28;20031;-66
2023/04/14 11:00:56;;;;;;;18.58;11.43;;;;;;;;;;5033890;28;20004;-65
2023/04/14 11:03:22;;;;;;;19.13;11.18;;;;;;;;;;5034389;28;20452;-64
2023/04/14 11:05:49;;;;;;;24.10;11.63;;;;;;;;;;5035154;28;20120;-64
2023/04/14 11:08:25;;;;;;;21.90;12.40;;;;;;;;;;5020057;28;20587;-65
2023/04/14 11:11:03;;;;;;;21.70;12.13;;;;;;;;;;5018564;28;20117;-65
2023/04/14 11:13:29;;;;;;;18.77;11.68;;;;;;;;;;5034485;28;20474;-65
2023/04/14 11:16:09;;;;;;;17.88;11.82;;;;;;;;;;5034767;28;20191;-64
2023/04/14 11:18:42;;;;;;;20.15;11.75;;;;;;;;;;5017324;28;20086;-63
2023/04/14 11:21:11;;;;;;;21.75;12.60;;;;;;;;;;5017273;28;20022;-64
2023/04/14 11:23:37;;;;;;;21.75;13.05;;;;;;;;;;5016494;28;20048;-66
2023/04/14 11:26:08;;;;;;;19.48;11.98;;;;;;;;;;5034683;28;20104;-66
2023/04/14 11:28:45;;;;;;;18.33;12.48;;;;;;;;;;5034397;28;20025;-66
2023/04/14 11:31:12;;;;;;;20.00;12.70;;;;;;;;;;5034516;28;20140;-66
2023/04/14 11:33:40;;;;;;;18.77;12.05;;;;;;;;;;5033089;28;20108;-66
2023/04/14 11:36:10;;;;;;;17.75;11.88;;;;;;;;;;5016938;28;20494;-65
2023/04/14 11:38:39;;;;;;;20.92;12.50;;;;;;;;;;5016324;28;20029;-66
2023/04/14 11:41:06;;;;;;;21.05;12.40;;;;;;;;;;5034019;28;20033;-66
2023/04/14 11:43:33;;;;;;;18.90;11.88;;;;;;;;;;5033700;28;20049;-64
2023/04/14 11:45:59;;;;;;;20.55;11.98;;;;;;;;;;5017108;28;20116;-65
2023/04/14 11:48:27;;;;;;;21.67;12.60;;;;;;;;;;5017076;28;20378;-65
2023/04/14 11:50:53;;;;;;;21.30;13.07;;;;;;;;;;5035086;28;20551;-64
2023/04/14 11:53:19;;;;;;;19.50;13.27;;;;;;;;;;5032258;28;20037;-68
2023/04/14 11:55:50;;;;;;;21.05;12.73;;;;;;;;;;5034542;28;20045;-65
2023/04/14 11:58:26;;;;;;;20.05;13.10;;;;;;;;;;5038112;22;20140;-63
2023/04/14 12:00:53;;;;;;;18.88;12.30;;;;;;;;;;5013869;28;20065;-65
2023/04/14 12:03:19;;;;;;;23.40;12.70;;;;;;;;;;5011313;28;20029;-60
2023/04/14 12:05:45;;;;;;;21.70;12.88;;;;;;;;;;5013813;28;20028;-63
2023/04/14 12:08:12;;;;;;;19.75;12.25;;;;;;;;;;5013794;28;20045;-64
2023/04/14 12:10:41;;;;;;;19.45;11.95;;;;;;;;;;5013544;28;20553;-62
2023/04/14 12:13:11;;;;;;;20.10;12.10;;;;;;;;;;5012084;28;20029;-63
2023/04/14 12:15:38;;;;;;;18.95;12.27;;;;;;;;;;5013182;28;20025;-63
2023/04/14 12:18:06;;;;;;;21.83;12.57;;;;;;;;;;5013467;28;20026;-64
2023/04/14 12:20:47;;;;;;;19.37;12.87;;;;;;;;;;5012987;28;20055;-57
2023/04/14 12:23:14;;;;;;;22.50;12.73;;;;;;;;;;4994594;28;20276;-63
2023/04/14 12:25:40;;;;;;;20.75;12.55;;;;;;;;;;5013130;28;20037;-63
2023/04/14 12:28:07;;;;;;;18.98;12.43;;;;;;;;;;5012664;28;20125;-62
2023/04/14 12:30:34;;;;;;;22.30;13.95;;;;;;;;;;4995834;28;20062;-64
2023/04/14 12:33:06;;;;;;;20.90;12.70;;;;;;;;;;5013280;28;20025;-56
2023/04/14 12:35:35;;;;;;;18.25;12.38;;;;;;;;;;5013265;28;20072;-65
2023/04/14 12:38:01;;;;;;;20.83;12.43;;;;;;;;;;5012911;28;20049;-65
2023/04/14 12:40:37;;;;;;;19.25;12.90;;;;;;;;;;5012782;28;20574;-64
2023/04/14 12:43:04;;;;;;;17.55;12.60;;;;;;;;;;5012195;28;20025;-68
2023/04/14 12:45:47;;;;;;;18.83;12.85;;;;;;;;;;4995630;28;20032;-68
2023/04/14 12:48:14;;;;;;;19.92;12.60;;;;;;;;;;5013225;28;20030;-67
2023/04/14 12:50:40;;;;;;;17.70;11.50;;;;;;;;;;4995484;28;20030;-68
2023/04/14 12:53:26;;;;;;;19.75;12.25;;;;;;;;;;4992824;28;20025;-68
2023/04/14 12:56:11;;;;;;;19.10;12.38;;;;;;;;;;4995032;28;20025;-68
2023/04/14 12:58:38;;;;;;;18.98;12.30;;;;;;;;;;4994990;28;20029;-69
2023/04/14 13:01:14;;;;;;;19.30;13.20;;;;;;;;;;5002436;28;20032;-63
2023/04/14 13:03:44;;;;;;;21.02;12.48;;;;;;;;;;4994610;28;20022;-63
2023/04/14 13:06:11;;;;;;;19.58;12.43;;;;;;;;;;4995066;28;20435;-64
2023/04/14 13:08:37;;;;;;;22.00;13.35;;;;;;;;;;5012644;28;20418;-70
2023/04/14 13:11:03;;;;;;;19.60;13.80;;;;;;;;;;4994907;28;20390;-67
2023/04/14 13:13:29;;;;;;;19.88;13.15;;;;;;;;;;4993410;28;20022;-67
2023/04/14 13:15:56;;;;;;;18.25;12.30;;;;;;;;;;4994247;28;20445;-66
2023/04/14 13:18:22;;;;;;;20.35;12.10;;;;;;;;;;5011692;28;20026;-66
2023/04/14 13:20:54;;;;;;;19.15;12.30;;;;;;;;;;5011826;28;20056;-66
2023/04/14 13:23:24;;;;;;;18.85;12.95;;;;;;;;;;4991269;28;20026;-66
2023/04/14 13:25:50;;;;;;;18.00;12.43;;;;;;;;;;5012016;28;20041;-66
2023/04/14 13:28:16;;;;;;;19.50;12.65;;;;;;;;;;5012047;28;20040;-66
2023/04/14 13:30:43;;;;;;;21.70;13.50;;;;;;;;;;5012173;28;20049;-66
2023/04/14 13:33:09;;;;;;;17.60;12.65;;;;;;;;;;5009909;28;20026;-66
2023/04/14 13:35:35;;;;;;;18.58;13.25;;;;;;;;;;5011546;28;20096;-67
2023/04/14 13:38:01;;;;;;;17.85;13.07;;;;;;;;;;4993698;28;20022;-67
2023/04/14 13:40:28;;;;;;;19.85;12.93;;;;;;;;;;5011876;28;20025;-67
2023/04/14 13:42:54;;;;;;;18.85;12.93;;;;;;;;;;4993874;28;20061;-67
2023/04/14 13:45:20;;;;;;;20.17;13.48;;;;;;;;;;5010947;28;20026;-68
2023/04/14 13:47:50;;;;;;;19.02;13.38;;;;;;;;;;5011307;28;20395;-67
2023/04/14 13:50:18;;;;;;;19.88;12.82;;;;;;;;;;5011794;28;20026;-67
2023/04/14 13:52:44;;;;;;;20.13;13.18;;;;;;;;;;5011659;28;20398;-68
2023/04/14 13:55:10;;;;;;;19.77;12.73;;;;;;;;;;5010759;28;20026;-68
2023/04/14 13:57:36;;;;;;;18.48;12.05;;;;;;;;;;5011121;28;20036;-68
2023/04/14 14:00:08;;;;;;;18.48;13.52;;;;;;;;;;4986607;28;20018;-67
2023/04/14 14:02:34;;;;;;;20.70;12.85;;;;;;;;;;5011599;28;20030;-67
2023/04/14 14:05:00;;;;;;;19.10;12.50;;;;;;;;;;5010699;28;20030;-67
2023/04/14 14:07:26;;;;;;;19.58;12.80;;;;;;;;;;5009932;28;20084;-67
2023/04/14 14:09:52;;;;;;;19.45;13.00;;;;;;;;;;5010829;28;20034;-67
2023/04/14 14:12:18;;;;;;;22.60;13.15;;;;;;;;;;4993078;28;20672;-67
2023/04/14 14:14:45;;;;;;;18.15;12.48;;;;;;;;;;5009933;28;20101;-67
2023/04/14 14:17:11;;;;;;;17.30;11.80;;;;;;;;;;5017699;28;20445;-68
2023/04/14 14:19:38;;;;;;;19.45;12.70;;;;;;;;;;5010775;28;20049;-68
2023/04/14 14:22:06;;;;;;;18.95;12.10;;;;;;;;;;5010750;28;20017;-67